sensor_id;sensor_type;location;lat;lon;timestamp;P1;durP1;ratioP1;P2;durP2;ratioP2
66721;SDS011;53633;49.932;10.884;2023-08-20T00:01:20;11.27;;;6.28;;
66721;SDS011;53633;49.932;10.884;2023-08-20T00:03:49;11.45;;;5.72;;
66721;SDS011;53633;49.932;10.884;2023-08-20T00:06:17;9.82;;;6.10;;
66721;SDS011;53633;49.932;10.884;2023-08-20T00:08:44;10.98;;;6.20;;
66721;SDS011;53633;49.932;10.884;2023-08-20T00:11:11;10.57;;;6.07;;
66721;SDS011;53633;49.932;10.884;2023-08-20T00:13:38;11.10;;;6.15;;
66721;SDS011;53633;49.932;10.884;2023-08-20T00:16:07;10.73;;;6.63;;
66721;SDS011;53633;49.932;10.884;2023-08-20T00:18:35;14.23;;;6.18;;
66721;SDS011;53633;49.932;10.884;2023-08-20T00:21:04;11.57;;;6.05;;
66721;SDS011;53633;49.932;10.884;2023-08-20T00:23:32;12.17;;;6.17;;
66721;SDS011;53633;49.932;10.884;2023-08-20T00:25:59;9.38;;;6.03;;
66721;SDS011;53633;49.932;10.884;2023-08-20T00:28:26;9.13;;;5.75;;
66721;SDS011;53633;49.932;10.884;2023-08-20T00:30:53;10.20;;;6.13;;
66721;SDS011;53633;49.932;10.884;2023-08-20T00:33:21;9.00;;;5.72;;
66721;SDS011;53633;49.932;10.884;2023-08-20T00:35:48;11.47;;;6.13;;
66721;SDS011;53633;49.932;10.884;2023-08-20T00:38:14;10.73;;;6.07;;
66721;SDS011;53633;49.932;10.884;2023-08-20T00:40:41;10.93;;;6.20;;
66721;SDS011;53633;49.932;10.884;2023-08-20T00:43:07;13.25;;;5.97;;
66721;SDS011;53633;49.932;10.884;2023-08-20T00:45:34;12.23;;;6.03;;
66721;SDS011;53633;49.932;10.884;2023-08-20T00:48:01;9.90;;;5.53;;
66721;SDS011;53633;49.932;10.884;2023-08-20T00:50:30;11.15;;;5.78;;
66721;SDS011;53633;49.932;10.884;2023-08-20T00:52:57;11.70;;;5.90;;
66721;SDS011;53633;49.932;10.884;2023-08-20T00:55:24;10.27;;;6.45;;
66721;SDS011;53633;49.932;10.884;2023-08-20T00:57:51;10.38;;;6.40;;
66721;SDS011;53633;49.932;10.884;2023-08-20T01:00:17;9.30;;;5.73;;
66721;SDS011;53633;49.932;10.884;2023-08-20T01:02:44;10.43;;;6.13;;
66721;SDS011;53633;49.932;10.884;2023-08-20T01:05:13;10.82;;;6.10;;
66721;SDS011;53633;49.932;10.884;2023-08-20T01:10:51;12.57;;;6.30;;
66721;SDS011;53633;49.932;10.884;2023-08-20T01:13:22;12.23;;;5.67;;
66721;SDS011;53633;49.932;10.884;2023-08-20T01:15:49;13.00;;;6.10;;
66721;SDS011;53633;49.932;10.884;2023-08-20T01:18:16;11.38;;;6.15;;
66721;SDS011;53633;49.932;10.884;2023-08-20T01:20:45;11.38;;;6.18;;
66721;SDS011;53633;49.932;10.884;2023-08-20T01:23:24;10.30;;;5.80;;
66721;SDS011;53633;49.932;10.884;2023-08-20T01:26:07;10.90;;;5.80;;
66721;SDS011;53633;49.932;10.884;2023-08-20T01:28:45;11.32;;;6.03;;
66721;SDS011;53633;49.932;10.884;2023-08-20T01:31:12;11.38;;;6.47;;
66721;SDS011;53633;49.932;10.884;2023-08-20T01:33:40;12.10;;;5.88;;
66721;SDS011;53633;49.932;10.884;2023-08-20T01:36:08;9.57;;;6.00;;
66721;SDS011;53633;49.932;10.884;2023-08-20T01:38:34;11.27;;;6.40;;
66721;SDS011;53633;49.932;10.884;2023-08-20T01:41:01;9.43;;;5.65;;
66721;SDS011;53633;49.932;10.884;2023-08-20T01:43:28;11.55;;;6.22;;
66721;SDS011;53633;49.932;10.884;2023-08-20T01:45:56;9.00;;;5.80;;
66721;SDS011;53633;49.932;10.884;2023-08-20T01:48:23;11.52;;;6.30;;
66721;SDS011;53633;49.932;10.884;2023-08-20T01:50:49;9.57;;;4.90;;
66721;SDS011;53633;49.932;10.884;2023-08-20T01:53:16;11.40;;;6.05;;
66721;SDS011;53633;49.932;10.884;2023-08-20T01:55:43;11.05;;;6.05;;
66721;SDS011;53633;49.932;10.884;2023-08-20T01:58:09;13.13;;;5.88;;
66721;SDS011;53633;49.932;10.884;2023-08-20T02:00:36;10.85;;;6.07;;
66721;SDS011;53633;49.932;10.884;2023-08-20T02:03:04;11.60;;;6.33;;
66721;SDS011;53633;49.932;10.884;2023-08-20T02:05:31;9.50;;;5.93;;
66721;SDS011;53633;49.932;10.884;2023-08-20T02:07:58;9.10;;;5.80;;
66721;SDS011;53633;49.932;10.884;2023-08-20T02:10:24;11.43;;;6.10;;
66721;SDS011;53633;49.932;10.884;2023-08-20T02:12:51;11.65;;;5.55;;
66721;SDS011;53633;49.932;10.884;2023-08-20T02:15:17;13.27;;;6.37;;
66721;SDS011;53633;49.932;10.884;2023-08-20T02:17:44;10.35;;;6.13;;
66721;SDS011;53633;49.932;10.884;2023-08-20T02:20:12;11.02;;;6.22;;
66721;SDS011;53633;49.932;10.884;2023-08-20T02:22:39;12.90;;;5.95;;
66721;SDS011;53633;49.932;10.884;2023-08-20T02:25:06;13.10;;;6.60;;
66721;SDS011;53633;49.932;10.884;2023-08-20T02:27:33;10.50;;;5.77;;
66721;SDS011;53633;49.932;10.884;2023-08-20T02:30:00;11.40;;;6.10;;
66721;SDS011;53633;49.932;10.884;2023-08-20T02:32:27;10.25;;;6.28;;
66721;SDS011;53633;49.932;10.884;2023-08-20T02:34:54;10.90;;;6.55;;
66721;SDS011;53633;49.932;10.884;2023-08-20T02:37:22;9.95;;;6.28;;
66721;SDS011;53633;49.932;10.884;2023-08-20T02:39:49;12.63;;;6.10;;
66721;SDS011;53633;49.932;10.884;2023-08-20T02:42:16;11.73;;;6.13;;
66721;SDS011;53633;49.932;10.884;2023-08-20T02:44:42;12.20;;;6.30;;
66721;SDS011;53633;49.932;10.884;2023-08-20T02:47:09;12.55;;;7.15;;
66721;SDS011;53633;49.932;10.884;2023-08-20T02:49:35;10.45;;;6.35;;
66721;SDS011;53633;49.932;10.884;2023-08-20T02:52:02;12.17;;;7.03;;
66721;SDS011;53633;49.932;10.884;2023-08-20T02:54:31;12.07;;;6.65;;
66721;SDS011;53633;49.932;10.884;2023-08-20T02:56:58;11.07;;;6.28;;
66721;SDS011;53633;49.932;10.884;2023-08-20T02:59:24;11.20;;;6.43;;
66721;SDS011;53633;49.932;10.884;2023-08-20T03:01:51;11.35;;;6.20;;
66721;SDS011;53633;49.932;10.884;2023-08-20T03:04:18;10.87;;;6.07;;
66721;SDS011;53633;49.932;10.884;2023-08-20T03:06:44;11.43;;;6.10;;
66721;SDS011;53633;49.932;10.884;2023-08-20T03:09:11;12.23;;;6.65;;
66721;SDS011;53633;49.932;10.884;2023-08-20T03:11:39;9.63;;;5.97;;
66721;SDS011;53633;49.932;10.884;2023-08-20T03:14:06;10.68;;;5.90;;
66721;SDS011;53633;49.932;10.884;2023-08-20T03:16:32;9.30;;;6.50;;
66721;SDS011;53633;49.932;10.884;2023-08-20T03:18:59;13.98;;;6.40;;
66721;SDS011;53633;49.932;10.884;2023-08-20T03:21:26;11.88;;;6.70;;
66721;SDS011;53633;49.932;10.884;2023-08-20T03:23:52;12.15;;;6.13;;
66721;SDS011;53633;49.932;10.884;2023-08-20T03:26:19;10.90;;;6.03;;
66721;SDS011;53633;49.932;10.884;2023-08-20T03:28:47;12.07;;;6.10;;
66721;SDS011;53633;49.932;10.884;2023-08-20T03:31:14;11.38;;;5.78;;
66721;SDS011;53633;49.932;10.884;2023-08-20T03:33:41;9.73;;;5.93;;
66721;SDS011;53633;49.932;10.884;2023-08-20T03:36:07;10.98;;;6.05;;
66721;SDS011;53633;49.932;10.884;2023-08-20T03:38:34;12.73;;;6.28;;
66721;SDS011;53633;49.932;10.884;2023-08-20T03:41:01;10.07;;;6.23;;
66721;SDS011;53633;49.932;10.884;2023-08-20T03:43:27;9.38;;;5.82;;
66721;SDS011;53633;49.932;10.884;2023-08-20T03:45:55;10.38;;;6.03;;
66721;SDS011;53633;49.932;10.884;2023-08-20T03:48:22;10.55;;;6.03;;
66721;SDS011;53633;49.932;10.884;2023-08-20T03:50:49;12.57;;;6.47;;
66721;SDS011;53633;49.932;10.884;2023-08-20T03:53:15;9.10;;;5.57;;
66721;SDS011;53633;49.932;10.884;2023-08-20T03:55:46;13.20;;;6.25;;
66721;SDS011;53633;49.932;10.884;2023-08-20T03:58:14;12.05;;;6.32;;
66721;SDS011;53633;49.932;10.884;2023-08-20T04:00:40;15.10;;;6.13;;
66721;SDS011;53633;49.932;10.884;2023-08-20T04:03:08;13.07;;;6.63;;
66721;SDS011;53633;49.932;10.884;2023-08-20T04:05:35;11.83;;;6.53;;
66721;SDS011;53633;49.932;10.884;2023-08-20T04:08:03;10.75;;;6.28;;
66721;SDS011;53633;49.932;10.884;2023-08-20T04:10:30;14.35;;;6.07;;
66721;SDS011;53633;49.932;10.884;2023-08-20T04:12:56;9.27;;;5.65;;
66721;SDS011;53633;49.932;10.884;2023-08-20T04:15:23;11.63;;;5.90;;
66721;SDS011;53633;49.932;10.884;2023-08-20T04:17:50;11.70;;;6.30;;
66721;SDS011;53633;49.932;10.884;2023-08-20T04:20:18;11.27;;;6.35;;
66721;SDS011;53633;49.932;10.884;2023-08-20T04:22:45;11.40;;;6.28;;
66721;SDS011;53633;49.932;10.884;2023-08-20T04:25:11;9.65;;;6.05;;
66721;SDS011;53633;49.932;10.884;2023-08-20T04:27:38;11.70;;;6.00;;
66721;SDS011;53633;49.932;10.884;2023-08-20T04:30:05;13.00;;;6.17;;
66721;SDS011;53633;49.932;10.884;2023-08-20T04:32:33;12.60;;;6.32;;
66721;SDS011;53633;49.932;10.884;2023-08-20T04:35:00;11.27;;;6.15;;
66721;SDS011;53633;49.932;10.884;2023-08-20T04:37:28;12.30;;;6.18;;
66721;SDS011;53633;49.932;10.884;2023-08-20T04:39:54;12.60;;;6.45;;
66721;SDS011;53633;49.932;10.884;2023-08-20T04:42:21;11.33;;;6.27;;
66721;SDS011;53633;49.932;10.884;2023-08-20T04:44:48;12.20;;;6.25;;
66721;SDS011;53633;49.932;10.884;2023-08-20T04:47:15;11.98;;;6.50;;
66721;SDS011;53633;49.932;10.884;2023-08-20T04:49:41;12.57;;;6.78;;
66721;SDS011;53633;49.932;10.884;2023-08-20T04:52:08;10.20;;;6.25;;
66721;SDS011;53633;49.932;10.884;2023-08-20T04:54:36;12.70;;;6.70;;
66721;SDS011;53633;49.932;10.884;2023-08-20T04:57:03;11.07;;;6.22;;
66721;SDS011;53633;49.932;10.884;2023-08-20T04:59:30;11.88;;;5.82;;
66721;SDS011;53633;49.932;10.884;2023-08-20T05:01:57;11.20;;;6.57;;
66721;SDS011;53633;49.932;10.884;2023-08-20T05:04:23;10.02;;;6.50;;
66721;SDS011;53633;49.932;10.884;2023-08-20T05:06:50;10.73;;;6.23;;
66721;SDS011;53633;49.932;10.884;2023-08-20T05:09:17;12.95;;;7.05;;
66721;SDS011;53633;49.932;10.884;2023-08-20T05:11:45;12.50;;;6.85;;
66721;SDS011;53633;49.932;10.884;2023-08-20T05:14:12;10.50;;;5.57;;
66721;SDS011;53633;49.932;10.884;2023-08-20T05:16:38;10.73;;;6.25;;
66721;SDS011;53633;49.932;10.884;2023-08-20T05:19:05;12.80;;;6.30;;
66721;SDS011;53633;49.932;10.884;2023-08-20T05:21:31;12.10;;;6.68;;
66721;SDS011;53633;49.932;10.884;2023-08-20T05:23:58;11.88;;;6.18;;
66721;SDS011;53633;49.932;10.884;2023-08-20T05:26:25;12.38;;;6.32;;
66721;SDS011;53633;49.932;10.884;2023-08-20T05:28:53;11.20;;;6.78;;
66721;SDS011;53633;49.932;10.884;2023-08-20T05:31:19;12.63;;;6.80;;
66721;SDS011;53633;49.932;10.884;2023-08-20T05:33:46;13.80;;;6.45;;
66721;SDS011;53633;49.932;10.884;2023-08-20T05:36:13;11.00;;;6.80;;
66721;SDS011;53633;49.932;10.884;2023-08-20T05:38:40;11.93;;;5.80;;
66721;SDS011;53633;49.932;10.884;2023-08-20T05:41:07;11.63;;;7.03;;
66721;SDS011;53633;49.932;10.884;2023-08-20T05:43:33;11.03;;;6.87;;
66721;SDS011;53633;49.932;10.884;2023-08-20T05:46:01;10.27;;;6.38;;
66721;SDS011;53633;49.932;10.884;2023-08-20T05:48:28;12.50;;;6.95;;
66721;SDS011;53633;49.932;10.884;2023-08-20T05:50:55;10.50;;;7.05;;
66721;SDS011;53633;49.932;10.884;2023-08-20T05:53:22;11.30;;;6.57;;
66721;SDS011;53633;49.932;10.884;2023-08-20T05:55:49;10.47;;;6.03;;
66721;SDS011;53633;49.932;10.884;2023-08-20T05:58:16;10.02;;;6.68;;
66721;SDS011;53633;49.932;10.884;2023-08-20T06:00:42;11.43;;;6.97;;
66721;SDS011;53633;49.932;10.884;2023-08-20T06:03:10;9.43;;;6.57;;
66721;SDS011;53633;49.932;10.884;2023-08-20T06:05:37;10.27;;;6.22;;
66721;SDS011;53633;49.932;10.884;2023-08-20T06:08:04;11.03;;;6.20;;
66721;SDS011;53633;49.932;10.884;2023-08-20T06:10:31;11.45;;;6.90;;
66721;SDS011;53633;49.932;10.884;2023-08-20T06:12:58;12.95;;;6.65;;
66721;SDS011;53633;49.932;10.884;2023-08-20T06:15:24;10.35;;;7.43;;
66721;SDS011;53633;49.932;10.884;2023-08-20T06:17:51;10.18;;;7.03;;
66721;SDS011;53633;49.932;10.884;2023-08-20T06:20:19;12.10;;;6.50;;
66721;SDS011;53633;49.932;10.884;2023-08-20T06:22:46;10.90;;;6.78;;
66721;SDS011;53633;49.932;10.884;2023-08-20T06:25:12;10.27;;;6.53;;
66721;SDS011;53633;49.932;10.884;2023-08-20T06:27:41;10.57;;;6.38;;
66721;SDS011;53633;49.932;10.884;2023-08-20T06:30:08;10.80;;;6.75;;
66721;SDS011;53633;49.932;10.884;2023-08-20T06:32:35;11.17;;;6.67;;
66721;SDS011;53633;49.932;10.884;2023-08-20T06:35:02;9.00;;;6.60;;
66721;SDS011;53633;49.932;10.884;2023-08-20T06:37:31;11.38;;;6.65;;
66721;SDS011;53633;49.932;10.884;2023-08-20T06:39:58;9.70;;;6.57;;
66721;SDS011;53633;49.932;10.884;2023-08-20T06:42:24;12.38;;;7.75;;
66721;SDS011;53633;49.932;10.884;2023-08-20T06:44:51;11.90;;;6.97;;
66721;SDS011;53633;49.932;10.884;2023-08-20T06:47:18;14.18;;;6.68;;
66721;SDS011;53633;49.932;10.884;2023-08-20T06:49:44;10.98;;;7.40;;
66721;SDS011;53633;49.932;10.884;2023-08-20T06:52:11;11.18;;;6.82;;
66721;SDS011;53633;49.932;10.884;2023-08-20T06:54:39;13.05;;;8.07;;
66721;SDS011;53633;49.932;10.884;2023-08-20T06:57:06;12.40;;;6.60;;
66721;SDS011;53633;49.932;10.884;2023-08-20T06:59:32;10.52;;;7.28;;
66721;SDS011;53633;49.932;10.884;2023-08-20T07:01:59;11.15;;;7.20;;
66721;SDS011;53633;49.932;10.884;2023-08-20T07:04:26;13.23;;;7.47;;
66721;SDS011;53633;49.932;10.884;2023-08-20T07:06:52;14.82;;;7.45;;
66721;SDS011;53633;49.932;10.884;2023-08-20T07:09:19;16.37;;;7.57;;
66721;SDS011;53633;49.932;10.884;2023-08-20T07:11:47;11.65;;;7.72;;
66721;SDS011;53633;49.932;10.884;2023-08-20T07:14:15;11.48;;;7.72;;
66721;SDS011;53633;49.932;10.884;2023-08-20T07:16:41;11.95;;;7.68;;
66721;SDS011;53633;49.932;10.884;2023-08-20T07:19:08;10.80;;;8.15;;
66721;SDS011;53633;49.932;10.884;2023-08-20T07:21:35;13.40;;;7.67;;
66721;SDS011;53633;49.932;10.884;2023-08-20T07:24:01;11.85;;;7.65;;
66721;SDS011;53633;49.932;10.884;2023-08-20T07:26:28;11.48;;;7.78;;
66721;SDS011;53633;49.932;10.884;2023-08-20T07:28:57;11.63;;;7.72;;
66721;SDS011;53633;49.932;10.884;2023-08-20T07:31:24;11.55;;;7.95;;
66721;SDS011;53633;49.932;10.884;2023-08-20T07:33:51;13.10;;;7.87;;
66721;SDS011;53633;49.932;10.884;2023-08-20T07:36:19;12.70;;;7.43;;
66721;SDS011;53633;49.932;10.884;2023-08-20T07:38:48;11.93;;;7.80;;
66721;SDS011;53633;49.932;10.884;2023-08-20T07:41:15;13.48;;;7.00;;
66721;SDS011;53633;49.932;10.884;2023-08-20T07:43:42;13.73;;;7.85;;
66721;SDS011;53633;49.932;10.884;2023-08-20T07:46:10;11.23;;;6.87;;
66721;SDS011;53633;49.932;10.884;2023-08-20T07:48:37;10.43;;;6.88;;
66721;SDS011;53633;49.932;10.884;2023-08-20T07:51:04;12.45;;;8.43;;
66721;SDS011;53633;49.932;10.884;2023-08-20T07:53:32;11.95;;;7.35;;
66721;SDS011;53633;49.932;10.884;2023-08-20T07:55:59;10.80;;;7.00;;
66721;SDS011;53633;49.932;10.884;2023-08-20T07:58:26;13.57;;;7.07;;
66721;SDS011;53633;49.932;10.884;2023-08-20T08:00:56;11.18;;;7.38;;
66721;SDS011;53633;49.932;10.884;2023-08-20T08:03:24;9.95;;;7.10;;
66721;SDS011;53633;49.932;10.884;2023-08-20T08:05:51;11.55;;;7.22;;
66721;SDS011;53633;49.932;10.884;2023-08-20T08:08:18;11.65;;;7.03;;
66721;SDS011;53633;49.932;10.884;2023-08-20T08:10:45;10.57;;;6.93;;
66721;SDS011;53633;49.932;10.884;2023-08-20T08:13:12;9.75;;;6.57;;
66721;SDS011;53633;49.932;10.884;2023-08-20T08:15:39;13.43;;;6.90;;
66721;SDS011;53633;49.932;10.884;2023-08-20T08:18:06;13.05;;;7.20;;
66721;SDS011;53633;49.932;10.884;2023-08-20T08:20:35;10.90;;;6.70;;
66721;SDS011;53633;49.932;10.884;2023-08-20T08:23:02;9.70;;;6.20;;
66721;SDS011;53633;49.932;10.884;2023-08-20T08:25:29;11.93;;;6.53;;
66721;SDS011;53633;49.932;10.884;2023-08-20T08:27:55;10.82;;;6.75;;
66721;SDS011;53633;49.932;10.884;2023-08-20T08:30:26;9.65;;;7.20;;
66721;SDS011;53633;49.932;10.884;2023-08-20T08:32:52;9.95;;;6.68;;
66721;SDS011;53633;49.932;10.884;2023-08-20T08:35:19;9.37;;;6.37;;
66721;SDS011;53633;49.932;10.884;2023-08-20T08:37:47;13.57;;;7.63;;
66721;SDS011;53633;49.932;10.884;2023-08-20T08:40:15;10.68;;;7.22;;
66721;SDS011;53633;49.932;10.884;2023-08-20T08:42:42;13.98;;;7.05;;
66721;SDS011;53633;49.932;10.884;2023-08-20T08:45:09;11.57;;;7.40;;
66721;SDS011;53633;49.932;10.884;2023-08-20T08:47:36;9.90;;;6.30;;
66721;SDS011;53633;49.932;10.884;2023-08-20T08:50:07;8.38;;;5.95;;
66721;SDS011;53633;49.932;10.884;2023-08-20T08:52:35;11.82;;;6.80;;
66721;SDS011;53633;49.932;10.884;2023-08-20T08:55:05;10.40;;;6.95;;
66721;SDS011;53633;49.932;10.884;2023-08-20T08:57:32;9.55;;;6.18;;
66721;SDS011;53633;49.932;10.884;2023-08-20T08:59:59;10.60;;;6.40;;
66721;SDS011;53633;49.932;10.884;2023-08-20T09:02:26;10.43;;;6.93;;
66721;SDS011;53633;49.932;10.884;2023-08-20T09:04:53;10.32;;;6.60;;
66721;SDS011;53633;49.932;10.884;2023-08-20T09:07:20;9.50;;;7.60;;
66721;SDS011;53633;49.932;10.884;2023-08-20T09:09:47;9.88;;;7.15;;
66721;SDS011;53633;49.932;10.884;2023-08-20T09:12:15;10.17;;;6.50;;
66721;SDS011;53633;49.932;10.884;2023-08-20T09:14:56;10.18;;;6.53;;
66721;SDS011;53633;49.932;10.884;2023-08-20T09:17:24;14.43;;;6.60;;
66721;SDS011;53633;49.932;10.884;2023-08-20T09:19:51;12.32;;;6.45;;
66721;SDS011;53633;49.932;10.884;2023-08-20T09:22:20;9.40;;;6.65;;
66721;SDS011;53633;49.932;10.884;2023-08-20T09:24:53;12.73;;;6.90;;
66721;SDS011;53633;49.932;10.884;2023-08-20T09:27:22;12.52;;;6.50;;
66721;SDS011;53633;49.932;10.884;2023-08-20T09:29:50;14.23;;;6.85;;
66721;SDS011;53633;49.932;10.884;2023-08-20T09:32:18;9.55;;;6.50;;
66721;SDS011;53633;49.932;10.884;2023-08-20T09:34:46;9.40;;;6.45;;
66721;SDS011;53633;49.932;10.884;2023-08-20T09:37:14;8.33;;;5.60;;
66721;SDS011;53633;49.932;10.884;2023-08-20T09:39:42;9.68;;;6.50;;
66721;SDS011;53633;49.932;10.884;2023-08-20T09:42:09;8.57;;;6.00;;
66721;SDS011;53633;49.932;10.884;2023-08-20T09:44:38;9.68;;;5.70;;
66721;SDS011;53633;49.932;10.884;2023-08-20T09:47:07;11.43;;;6.32;;
66721;SDS011;53633;49.932;10.884;2023-08-20T09:49:38;8.87;;;6.20;;
66721;SDS011;53633;49.932;10.884;2023-08-20T09:52:06;9.82;;;6.47;;
66721;SDS011;53633;49.932;10.884;2023-08-20T09:54:36;8.93;;;6.45;;
66721;SDS011;53633;49.932;10.884;2023-08-20T09:57:12;10.48;;;6.50;;
66721;SDS011;53633;49.932;10.884;2023-08-20T09:59:47;10.38;;;6.65;;
66721;SDS011;53633;49.932;10.884;2023-08-20T10:02:15;9.97;;;6.40;;
66721;SDS011;53633;49.932;10.884;2023-08-20T10:04:43;8.48;;;5.70;;
66721;SDS011;53633;49.932;10.884;2023-08-20T10:07:10;9.02;;;6.55;;
66721;SDS011;53633;49.932;10.884;2023-08-20T10:09:38;9.27;;;6.78;;
66721;SDS011;53633;49.932;10.884;2023-08-20T10:12:07;8.20;;;6.50;;
66721;SDS011;53633;49.932;10.884;2023-08-20T10:14:34;9.60;;;5.90;;
66721;SDS011;53633;49.932;10.884;2023-08-20T10:17:07;11.75;;;6.50;;
66721;SDS011;53633;49.932;10.884;2023-08-20T10:19:34;10.85;;;6.72;;
66721;SDS011;53633;49.932;10.884;2023-08-20T10:22:02;10.50;;;6.43;;
66721;SDS011;53633;49.932;10.884;2023-08-20T10:24:31;10.75;;;7.00;;
66721;SDS011;53633;49.932;10.884;2023-08-20T10:27:06;9.43;;;6.10;;
66721;SDS011;53633;49.932;10.884;2023-08-20T10:29:34;9.40;;;6.70;;
66721;SDS011;53633;49.932;10.884;2023-08-20T10:32:03;11.07;;;6.38;;
66721;SDS011;53633;49.932;10.884;2023-08-20T10:34:33;11.20;;;6.45;;
66721;SDS011;53633;49.932;10.884;2023-08-20T10:37:01;10.52;;;6.60;;
66721;SDS011;53633;49.932;10.884;2023-08-20T10:39:28;9.87;;;6.33;;
66721;SDS011;53633;49.932;10.884;2023-08-20T10:42:07;9.60;;;6.10;;
66721;SDS011;53633;49.932;10.884;2023-08-20T10:47:26;10.23;;;5.97;;
66721;SDS011;53633;49.932;10.884;2023-08-20T10:50:04;10.07;;;6.43;;
66721;SDS011;53633;49.932;10.884;2023-08-20T10:52:31;9.23;;;6.10;;
66721;SDS011;53633;49.932;10.884;2023-08-20T10:54:58;14.25;;;6.53;;
66721;SDS011;53633;49.932;10.884;2023-08-20T10:57:32;11.27;;;6.07;;
66721;SDS011;53633;49.932;10.884;2023-08-20T11:00:02;9.27;;;6.50;;
66721;SDS011;53633;49.932;10.884;2023-08-20T11:02:32;11.15;;;6.63;;
66721;SDS011;53633;49.932;10.884;2023-08-20T11:04:59;12.00;;;6.53;;
66721;SDS011;53633;49.932;10.884;2023-08-20T11:07:27;13.50;;;7.05;;
66721;SDS011;53633;49.932;10.884;2023-08-20T11:09:55;10.73;;;6.32;;
66721;SDS011;53633;49.932;10.884;2023-08-20T11:12:21;10.93;;;6.38;;
66721;SDS011;53633;49.932;10.884;2023-08-20T11:14:48;12.85;;;6.82;;
66721;SDS011;53633;49.932;10.884;2023-08-20T11:17:15;12.20;;;7.03;;
66721;SDS011;53633;49.932;10.884;2023-08-20T11:19:41;11.57;;;6.60;;
66721;SDS011;53633;49.932;10.884;2023-08-20T11:22:14;11.57;;;6.90;;
66721;SDS011;53633;49.932;10.884;2023-08-20T11:24:43;10.63;;;6.68;;
66721;SDS011;53633;49.932;10.884;2023-08-20T11:27:10;12.20;;;6.78;;
66721;SDS011;53633;49.932;10.884;2023-08-20T11:29:37;9.20;;;6.07;;
66721;SDS011;53633;49.932;10.884;2023-08-20T11:32:07;11.20;;;6.80;;
66721;SDS011;53633;49.932;10.884;2023-08-20T11:34:35;11.30;;;6.30;;
66721;SDS011;53633;49.932;10.884;2023-08-20T11:37:01;11.40;;;6.45;;
66721;SDS011;53633;49.932;10.884;2023-08-20T11:39:29;9.27;;;6.28;;
66721;SDS011;53633;49.932;10.884;2023-08-20T11:41:57;9.93;;;6.50;;
66721;SDS011;53633;49.932;10.884;2023-08-20T11:44:24;13.80;;;6.63;;
66721;SDS011;53633;49.932;10.884;2023-08-20T11:46:50;10.05;;;6.53;;
66721;SDS011;53633;49.932;10.884;2023-08-20T11:49:20;11.15;;;6.38;;
66721;SDS011;53633;49.932;10.884;2023-08-20T11:51:53;10.82;;;6.20;;
66721;SDS011;53633;49.932;10.884;2023-08-20T11:54:22;12.97;;;7.30;;
66721;SDS011;53633;49.932;10.884;2023-08-20T11:56:49;9.77;;;6.75;;
66721;SDS011;53633;49.932;10.884;2023-08-20T11:59:18;13.30;;;6.35;;
66721;SDS011;53633;49.932;10.884;2023-08-20T12:01:49;9.77;;;6.32;;
66721;SDS011;53633;49.932;10.884;2023-08-20T12:04:16;11.10;;;6.30;;
66721;SDS011;53633;49.932;10.884;2023-08-20T12:06:43;9.53;;;6.67;;
66721;SDS011;53633;49.932;10.884;2023-08-20T12:09:19;9.50;;;6.47;;
66721;SDS011;53633;49.932;10.884;2023-08-20T12:11:48;11.25;;;7.40;;
66721;SDS011;53633;49.932;10.884;2023-08-20T12:14:15;10.70;;;6.65;;
66721;SDS011;53633;49.932;10.884;2023-08-20T12:16:43;11.27;;;6.47;;
66721;SDS011;53633;49.932;10.884;2023-08-20T12:19:11;10.87;;;6.67;;
66721;SDS011;53633;49.932;10.884;2023-08-20T12:21:39;8.45;;;6.13;;
66721;SDS011;53633;49.932;10.884;2023-08-20T12:24:07;14.88;;;6.78;;
66721;SDS011;53633;49.932;10.884;2023-08-20T12:26:34;9.38;;;6.18;;
66721;SDS011;53633;49.932;10.884;2023-08-20T12:29:01;12.05;;;6.45;;
66721;SDS011;53633;49.932;10.884;2023-08-20T12:31:28;12.30;;;6.43;;
66721;SDS011;53633;49.932;10.884;2023-08-20T12:33:56;11.68;;;6.82;;
66721;SDS011;53633;49.932;10.884;2023-08-20T12:36:22;10.82;;;6.57;;
66721;SDS011;53633;49.932;10.884;2023-08-20T12:38:49;10.02;;;6.90;;
66721;SDS011;53633;49.932;10.884;2023-08-20T12:41:16;10.60;;;7.18;;
66721;SDS011;53633;49.932;10.884;2023-08-20T12:43:42;9.80;;;6.53;;
66721;SDS011;53633;49.932;10.884;2023-08-20T12:46:09;12.35;;;6.78;;
66721;SDS011;53633;49.932;10.884;2023-08-20T12:48:36;9.38;;;6.90;;
66721;SDS011;53633;49.932;10.884;2023-08-20T12:51:04;9.70;;;7.03;;
66721;SDS011;53633;49.932;10.884;2023-08-20T12:53:31;9.93;;;6.50;;
66721;SDS011;53633;49.932;10.884;2023-08-20T12:55:58;10.90;;;6.90;;
66721;SDS011;53633;49.932;10.884;2023-08-20T12:58:24;11.80;;;6.55;;
66721;SDS011;53633;49.932;10.884;2023-08-20T13:00:51;10.55;;;7.07;;
66721;SDS011;53633;49.932;10.884;2023-08-20T13:03:18;10.73;;;6.30;;
66721;SDS011;53633;49.932;10.884;2023-08-20T13:05:45;10.82;;;7.40;;
66721;SDS011;53633;49.932;10.884;2023-08-20T13:08:14;9.13;;;6.37;;
66721;SDS011;53633;49.932;10.884;2023-08-20T13:10:41;12.13;;;6.70;;
66721;SDS011;53633;49.932;10.884;2023-08-20T13:13:11;12.48;;;7.93;;
66721;SDS011;53633;49.932;10.884;2023-08-20T13:15:39;10.90;;;7.22;;
66721;SDS011;53633;49.932;10.884;2023-08-20T13:18:07;12.23;;;7.22;;
66721;SDS011;53633;49.932;10.884;2023-08-20T13:20:35;10.97;;;6.63;;
66721;SDS011;53633;49.932;10.884;2023-08-20T13:23:02;9.23;;;6.40;;
66721;SDS011;53633;49.932;10.884;2023-08-20T13:25:30;10.00;;;7.47;;
66721;SDS011;53633;49.932;10.884;2023-08-20T13:27:57;12.93;;;7.15;;
66721;SDS011;53633;49.932;10.884;2023-08-20T13:30:24;10.90;;;6.82;;
66721;SDS011;53633;49.932;10.884;2023-08-20T13:32:50;11.40;;;6.70;;
66721;SDS011;53633;49.932;10.884;2023-08-20T13:35:17;12.30;;;7.30;;
66721;SDS011;53633;49.932;10.884;2023-08-20T13:37:44;10.73;;;6.85;;
66721;SDS011;53633;49.932;10.884;2023-08-20T13:40:11;12.18;;;6.75;;
66721;SDS011;53633;49.932;10.884;2023-08-20T13:42:39;11.57;;;6.65;;
66721;SDS011;53633;49.932;10.884;2023-08-20T13:45:06;16.60;;;6.67;;
66721;SDS011;53633;49.932;10.884;2023-08-20T13:47:33;9.98;;;6.43;;
66721;SDS011;53633;49.932;10.884;2023-08-20T13:50:00;11.13;;;6.82;;
66721;SDS011;53633;49.932;10.884;2023-08-20T13:52:27;9.55;;;6.35;;
66721;SDS011;53633;49.932;10.884;2023-08-20T13:54:53;13.52;;;5.65;;
66721;SDS011;53633;49.932;10.884;2023-08-20T13:57:20;9.67;;;5.57;;
66721;SDS011;53633;49.932;10.884;2023-08-20T13:59:48;10.52;;;6.10;;
66721;SDS011;53633;49.932;10.884;2023-08-20T14:02:15;11.38;;;5.80;;
66721;SDS011;53633;49.932;10.884;2023-08-20T14:04:42;9.25;;;5.65;;
66721;SDS011;53633;49.932;10.884;2023-08-20T14:07:09;8.90;;;5.82;;
66721;SDS011;53633;49.932;10.884;2023-08-20T14:09:35;10.43;;;5.43;;
66721;SDS011;53633;49.932;10.884;2023-08-20T14:12:02;9.35;;;5.57;;
66721;SDS011;53633;49.932;10.884;2023-08-20T14:14:29;10.85;;;5.50;;
66721;SDS011;53633;49.932;10.884;2023-08-20T14:16:57;11.70;;;5.75;;
66721;SDS011;53633;49.932;10.884;2023-08-20T14:19:24;10.77;;;5.75;;
66721;SDS011;53633;49.932;10.884;2023-08-20T14:21:50;7.77;;;5.03;;
66721;SDS011;53633;49.932;10.884;2023-08-20T14:24:17;11.68;;;6.30;;
66721;SDS011;53633;49.932;10.884;2023-08-20T14:29:21;10.88;;;5.65;;
66721;SDS011;53633;49.932;10.884;2023-08-20T14:31:48;9.00;;;5.38;;
66721;SDS011;53633;49.932;10.884;2023-08-20T14:34:16;7.20;;;4.60;;